createdAt,value
2023-02-06T00:01:45.423Z,102784.31
2023-02-06T00:04:13.702Z,102777.56
2023-02-06T00:06:42.021Z,102778.94
2023-02-06T00:09:10.927Z,102778.88
2023-02-06T00:11:39.445Z,102769.88
2023-02-06T00:14:08.102Z,102772.22
2023-02-06T00:16:36.810Z,102768.13
2023-02-06T00:19:06.512Z,102767.78
2023-02-06T00:21:34.712Z,102773.03
2023-02-06T00:24:03.752Z,102752.81
2023-02-06T00:26:32.497Z,102747.28
2023-02-06T00:29:00.803Z,102755.03
2023-02-06T00:31:29.308Z,102760.56
2023-02-06T00:33:57.535Z,102758.00
2023-02-06T00:36:28.430Z,102754.63
2023-02-06T00:38:56.743Z,102746.50
2023-02-06T00:41:25.263Z,102758.09
2023-02-06T00:43:53.480Z,102754.25
2023-02-06T00:46:21.835Z,102747.91
2023-02-06T00:48:50.044Z,102749.47
2023-02-06T00:51:18.254Z,102745.16
2023-02-06T00:53:49.572Z,102743.78
2023-02-06T00:56:19.381Z,102736.03
2023-02-06T00:58:48.517Z,102734.84
2023-02-06T01:01:16.750Z,102751.63
2023-02-06T01:03:45.187Z,102739.56
2023-02-06T01:06:13.374Z,102736.22
2023-02-06T01:08:41.565Z,102739.63
2023-02-06T01:11:13.261Z,102744.47
2023-02-06T01:13:41.582Z,102742.56
2023-02-06T01:16:11.124Z,102735.09
2023-02-06T01:18:39.920Z,102737.25
2023-02-06T01:21:10.308Z,102733.00
2023-02-06T01:23:40.524Z,102718.25
2023-02-06T01:26:10.012Z,102722.31
2023-02-06T01:28:40.450Z,102722.41
2023-02-06T01:31:12.442Z,102717.28
2023-02-06T01:33:41.298Z,102709.56
2023-02-06T01:36:10.838Z,102718.16
2023-02-06T01:38:39.378Z,102712.75
2023-02-06T01:41:08.380Z,102716.59
2023-02-06T01:43:40.061Z,102714.13
2023-02-06T01:46:08.904Z,102717.88
2023-02-06T01:48:42.222Z,102721.94
2023-02-06T01:51:14.772Z,102710.75
2023-02-06T01:53:45.311Z,102717.28
2023-02-06T01:56:19.668Z,102709.94
2023-02-06T01:58:53.019Z,102710.25
2023-02-06T02:01:21.724Z,102697.97
2023-02-06T02:03:53.657Z,102694.88
2023-02-06T02:06:25.049Z,102696.25
2023-02-06T02:08:58.234Z,102692.88
2023-02-06T02:11:29.574Z,102693.53
2023-02-06T02:13:59.535Z,102690.97
2023-02-06T02:16:40.183Z,102690.56
2023-02-06T02:19:34.725Z,102687.22
2023-02-06T02:22:18.381Z,102687.59
2023-02-06T02:25:06.138Z,102688.72
2023-02-06T02:28:02.951Z,102680.47
2023-02-06T02:30:51.180Z,102684.47
2023-02-06T02:33:42.863Z,102691.88
2023-02-06T02:36:16.314Z,102699.09
2023-02-06T02:38:55.331Z,102682.38
2023-02-06T02:41:30.607Z,102685.22
2023-02-06T02:44:06.468Z,102694.34
2023-02-06T02:46:39.791Z,102697.59
2023-02-06T02:49:12.414Z,102693.94
2023-02-06T02:51:43.183Z,102696.69
2023-02-06T02:54:11.567Z,102694.91
2023-02-06T02:56:40.382Z,102694.72
2023-02-06T02:59:12.581Z,102697.69
2023-02-06T03:01:50.228Z,102702.94
2023-02-06T03:04:24.123Z,102704.78
2023-02-06T03:07:04.643Z,102694.50
2023-02-06T03:09:46.853Z,102698.38
2023-02-06T03:12:23.197Z,102695.91
2023-02-06T03:14:56.833Z,102691.16
2023-02-06T03:17:34.629Z,102677.91
2023-02-06T03:20:07.860Z,102679.09
2023-02-06T03:22:38.535Z,102678.75
2023-02-06T03:25:13.160Z,102677.97
2023-02-06T03:27:44.538Z,102673.91
2023-02-06T03:30:18.648Z,102688.56
2023-02-06T03:32:51.129Z,102673.16
2023-02-06T03:35:23.649Z,102672.06
2023-02-06T03:37:53.817Z,102676.09
2023-02-06T03:40:22.669Z,102684.81
2023-02-06T03:42:57.200Z,102681.41
2023-02-06T03:45:29.926Z,102683.16
2023-02-06T03:48:02.147Z,102673.28
2023-02-06T03:50:32.182Z,102668.38
2023-02-06T03:53:03.609Z,102674.72
2023-02-06T03:55:31.848Z,102661.31
2023-02-06T03:58:04.679Z,102662.28
2023-02-06T04:00:33.860Z,102662.28
2023-02-06T04:03:02.581Z,102660.63
2023-02-06T04:05:30.792Z,102660.31
2023-02-06T04:07:58.916Z,102664.75
2023-02-06T04:10:28.528Z,102659.31
2023-02-06T04:12:57.102Z,102658.22
2023-02-06T04:15:25.651Z,102660.09
2023-02-06T04:18:00.558Z,102660.09
2023-02-06T04:20:29.856Z,102663.94
2023-02-06T04:22:58.416Z,102663.22
2023-02-06T04:25:27.992Z,102650.88
2023-02-06T04:27:56.144Z,102648.13
2023-02-06T04:30:24.548Z,102639.13
2023-02-06T04:32:52.982Z,102653.16
2023-02-06T04:35:21.594Z,102651.53
2023-02-06T04:37:49.803Z,102644.72
2023-02-06T04:40:18.400Z,102650.19
2023-02-06T04:42:48.151Z,102649.75
2023-02-06T04:45:16.329Z,102658.44
2023-02-06T04:47:45.074Z,102649.69
2023-02-06T04:50:13.267Z,102640.13
2023-02-06T04:52:41.395Z,102642.19
2023-02-06T04:55:10.288Z,102644.28
2023-02-06T04:57:38.665Z,102637.03
2023-02-06T05:00:10.431Z,102642.44
2023-02-06T05:02:39.965Z,102638.94
2023-02-06T05:05:09.677Z,102641.81
2023-02-06T05:07:38.110Z,102630.25
2023-02-06T05:10:06.624Z,102624.53
2023-02-06T05:12:34.894Z,102622.25
2023-02-06T05:15:03.022Z,102621.16
2023-02-06T05:17:32.525Z,102619.56
2023-02-06T05:20:00.967Z,102612.19
2023-02-06T05:22:29.304Z,102603.38
2023-02-06T05:24:57.414Z,102606.94
2023-02-06T05:27:25.812Z,102611.28
2023-02-06T05:29:53.884Z,102618.78
2023-02-06T05:32:22.171Z,102617.63
2023-02-06T05:34:51.553Z,102598.84
2023-02-06T05:37:19.714Z,102597.94
2023-02-06T05:39:47.813Z,102612.81
2023-02-06T05:42:16.069Z,102600.19
2023-02-06T05:44:44.264Z,102595.63
2023-02-06T05:47:12.431Z,102601.19
2023-02-06T05:49:40.585Z,102611.47
2023-02-06T05:52:10.051Z,102594.69
2023-02-06T05:54:38.210Z,102597.81
2023-02-06T05:57:06.515Z,102600.22
2023-02-06T05:59:34.820Z,102581.75
2023-02-06T06:02:04.220Z,102580.63
2023-02-06T06:04:32.363Z,102584.72
2023-02-06T06:07:00.633Z,102586.38
2023-02-06T06:09:30.082Z,102563.66
2023-02-06T06:11:58.272Z,102555.44
2023-02-06T06:14:26.461Z,102563.06
2023-02-06T06:16:54.622Z,102571.78
2023-02-06T06:19:22.701Z,102560.56
2023-02-06T06:21:51.021Z,102552.28
2023-02-06T06:24:19.254Z,102554.75
2023-02-06T06:26:48.971Z,102552.78
2023-02-06T06:29:17.121Z,102551.41
2023-02-06T06:31:45.382Z,102550.22
2023-02-06T06:34:13.574Z,102548.66
2023-02-06T06:36:41.764Z,102556.34
2023-02-06T06:39:10.895Z,102552.59
2023-02-06T06:41:39.541Z,102556.53
2023-02-06T06:44:08.940Z,102561.88
2023-02-06T06:46:37.212Z,102566.09
2023-02-06T06:49:05.630Z,102564.63
2023-02-06T06:51:33.840Z,102572.25
2023-02-06T06:54:02.040Z,102569.94
2023-02-06T06:56:30.565Z,102557.00
2023-02-06T06:58:58.680Z,102551.78
2023-02-06T07:01:28.149Z,102539.34
2023-02-06T07:03:56.241Z,102550.19
2023-02-06T07:06:24.438Z,102543.09
2023-02-06T07:08:52.581Z,102548.31
2023-02-06T07:11:20.982Z,102542.88
2023-02-06T07:13:49.233Z,102533.78
2023-02-06T07:16:17.503Z,102536.03
2023-02-06T07:18:47.451Z,102528.47
2023-02-06T07:21:16.062Z,102530.44
2023-02-06T07:23:44.182Z,102531.03
2023-02-06T07:26:12.924Z,102534.69
2023-02-06T07:28:42.253Z,102533.00
2023-02-06T07:31:10.866Z,102534.19
2023-02-06T07:33:38.975Z,102537.56
2023-02-06T07:36:11.651Z,102534.78
2023-02-06T07:38:39.832Z,102535.97
2023-02-06T07:41:08.764Z,102545.25
2023-02-06T07:43:36.991Z,102546.69
2023-02-06T07:46:06.652Z,102545.63
2023-02-06T07:48:34.816Z,102533.97
2023-02-06T07:51:07.002Z,102541.31
2023-02-06T07:53:37.614Z,102536.34
2023-02-06T07:56:11.901Z,102529.38
2023-02-06T07:58:40.196Z,102522.94
2023-02-06T08:01:08.911Z,102520.38
2023-02-06T08:03:37.468Z,102514.63
2023-02-06T08:06:09.369Z,102523.34
2023-02-06T08:08:39.123Z,102530.44
2023-02-06T08:11:08.135Z,102530.13
2023-02-06T08:13:37.168Z,102537.56
2023-02-06T08:16:07.451Z,102532.03
2023-02-06T08:18:36.000Z,102534.78
2023-02-06T08:21:05.008Z,102531.75
2023-02-06T08:23:33.740Z,102534.41
2023-02-06T08:26:04.880Z,102528.88
2023-02-06T08:28:35.216Z,102532.63
2023-02-06T08:31:10.622Z,102524.31
2023-02-06T08:33:38.991Z,102517.34
2023-02-06T08:36:08.327Z,102517.06
2023-02-06T08:38:37.354Z,102517.94
2023-02-06T08:41:14.954Z,102525.91
2023-02-06T08:43:43.252Z,102523.91
2023-02-06T08:46:11.398Z,102526.28
2023-02-06T08:48:39.818Z,102522.94
2023-02-06T08:51:09.480Z,102531.38
2023-02-06T08:53:38.372Z,102527.47
2023-02-06T08:56:10.924Z,102518.72
2023-02-06T08:58:39.995Z,102521.38
2023-02-06T09:01:08.907Z,102535.91
2023-02-06T09:03:37.639Z,102523.22
2023-02-06T09:06:10.253Z,102515.13
2023-02-06T09:08:39.615Z,102517.31
2023-02-06T09:11:10.341Z,102525.69
2023-02-06T09:13:39.289Z,102517.63
2023-02-06T09:16:09.108Z,102519.25
2023-02-06T09:18:38.870Z,102514.06
2023-02-06T09:21:10.206Z,102517.06
2023-02-06T09:23:39.971Z,102518.56
2023-02-06T09:26:10.005Z,102516.31
2023-02-06T09:28:38.458Z,102507.44
2023-02-06T09:31:07.836Z,102503.47
2023-02-06T09:33:36.368Z,102506.41
2023-02-06T09:36:06.477Z,102509.63
2023-02-06T09:38:34.856Z,102499.78
2023-02-06T09:41:07.796Z,102502.75
2023-02-06T09:43:37.532Z,102508.38
2023-02-06T09:46:11.536Z,102511.34
2023-02-06T09:48:40.704Z,102504.84
2023-02-06T09:51:16.612Z,102518.28
2023-02-06T09:53:56.234Z,102517.22
2023-02-06T09:56:34.204Z,102511.88
2023-02-06T09:59:14.384Z,102514.28
2023-02-06T10:01:46.917Z,102515.34
2023-02-06T10:04:35.434Z,102506.53
2023-02-06T10:07:18.874Z,102511.38
2023-02-06T10:09:52.122Z,102507.34
2023-02-06T10:12:27.062Z,102519.06
2023-02-06T10:15:00.465Z,102518.75
2023-02-06T10:17:32.271Z,102510.41
2023-02-06T10:20:05.262Z,102531.94
2023-02-06T10:22:41.216Z,102526.25
2023-02-06T10:25:23.862Z,102523.59
2023-02-06T10:27:57.772Z,102522.28
2023-02-06T10:30:34.362Z,102510.19
2023-02-06T10:33:14.377Z,102520.50
2023-02-06T10:36:00.512Z,102509.31
2023-02-06T10:38:44.391Z,102507.28
2023-02-06T10:41:24.489Z,102502.25
2023-02-06T10:43:57.093Z,102509.63
2023-02-06T10:46:42.278Z,102509.25
2023-02-06T10:49:19.941Z,102502.28
2023-02-06T10:51:52.891Z,102504.81
2023-02-06T10:54:25.630Z,102498.59
2023-02-06T10:56:57.116Z,102482.66
2023-02-06T10:59:30.996Z,102480.72
2023-02-06T11:02:16.647Z,102472.25
2023-02-06T11:04:50.814Z,102479.84
2023-02-06T11:07:25.209Z,102466.53
2023-02-06T11:09:53.932Z,102467.28
2023-02-06T11:12:31.313Z,102464.66
2023-02-06T11:15:05.179Z,102471.28
2023-02-06T11:17:35.384Z,102458.50
2023-02-06T11:20:18.128Z,102454.00
2023-02-06T11:22:52.816Z,102452.84
2023-02-06T11:25:26.408Z,102455.06
2023-02-06T11:27:55.090Z,102450.16
2023-02-06T11:30:31.046Z,102445.25
2023-02-06T11:33:05.160Z,102430.19
2023-02-06T11:35:38.523Z,102420.03
2023-02-06T11:38:15.348Z,102423.47
2023-02-06T11:40:44.481Z,102425.34
2023-02-06T11:43:21.738Z,102421.03
2023-02-06T11:45:53.916Z,102410.03
2023-02-06T11:48:35.584Z,102423.47
2023-02-06T11:51:04.379Z,102411.09
2023-02-06T11:53:32.970Z,102414.47
2023-02-06T11:56:05.131Z,102410.94
2023-02-06T11:58:34.138Z,102396.97
2023-02-06T12:01:05.416Z,102403.09
2023-02-06T12:03:37.716Z,102399.72
2023-02-06T12:06:13.515Z,102397.41
2023-02-06T12:08:47.899Z,102399.63
2023-02-06T12:11:23.781Z,102388.00
2023-02-06T12:13:57.209Z,102379.97
2023-02-06T12:16:26.544Z,102379.56
2023-02-06T12:18:58.879Z,102379.66
2023-02-06T12:21:35.361Z,102364.84
2023-02-06T12:24:06.942Z,102373.66
2023-02-06T12:26:38.232Z,102367.75
2023-02-06T12:29:15.184Z,102357.25
2023-02-06T12:31:48.823Z,102350.59
2023-02-06T12:34:22.796Z,102357.28
2023-02-06T12:37:00.188Z,102351.03
2023-02-06T12:39:33.248Z,102349.31
2023-02-06T12:42:17.218Z,102354.53
2023-02-06T12:44:53.168Z,102344.94
2023-02-06T12:47:26.781Z,102351.06
2023-02-06T12:50:03.088Z,102352.78
2023-02-06T12:52:41.060Z,102345.72
2023-02-06T12:55:19.183Z,102336.16
2023-02-06T12:58:13.383Z,102342.22
2023-02-06T13:01:01.319Z,102332.63
2023-02-06T13:03:35.321Z,102332.63
2023-02-06T13:06:13.491Z,102329.22
2023-02-06T13:08:47.372Z,102324.00
2023-02-06T13:11:45.435Z,102319.69
2023-02-06T13:14:21.900Z,102320.72
2023-02-06T13:16:53.789Z,102320.75
2023-02-06T13:19:26.023Z,102316.41
2023-02-06T13:22:34.031Z,102318.13
2023-02-06T13:25:03.454Z,102319.75
2023-02-06T13:27:39.200Z,102312.72
2023-02-06T13:30:44.709Z,102310.09
2023-02-06T13:33:16.904Z,102312.03
2023-02-06T13:35:56.593Z,102305.25
2023-02-06T13:38:37.711Z,102301.88
2023-02-06T13:41:38.542Z,102300.16
2023-02-06T13:44:16.821Z,102291.41
2023-02-06T13:47:20.794Z,102288.03
2023-02-06T13:50:20.980Z,102277.56
2023-02-06T13:53:05.096Z,102275.81
2023-02-06T13:55:47.051Z,102282.81
2023-02-06T13:58:36.495Z,102279.31
2023-02-06T14:01:05.986Z,102274.06
2023-02-06T14:03:38.305Z,102275.81
2023-02-06T14:06:24.933Z,102284.50
2023-02-06T14:09:04.551Z,102274.75
2023-02-06T14:12:00.413Z,102274.66
2023-02-06T14:14:41.254Z,102266.69
2023-02-06T14:17:25.821Z,102280.53
2023-02-06T14:19:59.911Z,102279.66
2023-02-06T14:22:34.357Z,102274.38
2023-02-06T14:25:20.601Z,102284.00
2023-02-06T14:28:07.024Z,102285.75
2023-02-06T14:30:44.208Z,102284.00
2023-02-06T14:33:28.940Z,102276.28
2023-02-06T14:36:08.502Z,102272.13
2023-02-06T14:38:59.457Z,102269.59
2023-02-06T14:41:30.941Z,102270.41
2023-02-06T14:44:01.328Z,102260.78
2023-02-06T14:46:30.764Z,102264.22
2023-02-06T14:49:01.250Z,102264.09
2023-02-06T14:51:32.336Z,102258.75
2023-02-06T14:54:03.223Z,102252.56
2023-02-06T14:56:33.900Z,102249.06
2023-02-06T14:59:22.611Z,102255.06
2023-02-06T15:01:54.741Z,102252.53
2023-02-06T15:04:26.130Z,102248.16
2023-02-06T15:06:56.522Z,102253.19
2023-02-06T15:09:28.085Z,102250.31
2023-02-06T15:11:58.404Z,102240.69
2023-02-06T15:14:35.087Z,102245.06
2023-02-06T15:17:04.727Z,102243.41
2023-02-06T15:19:35.733Z,102236.47
2023-02-06T15:22:06.583Z,102232.19
2023-02-06T15:24:47.696Z,102233.13
2023-02-06T15:27:25.569Z,102231.22
2023-02-06T15:29:56.096Z,102231.09
2023-02-06T15:32:29.993Z,102218.59
2023-02-06T15:34:58.271Z,102229.75
2023-02-06T15:37:30.207Z,102229.53
2023-02-06T15:40:06.077Z,102227.56
2023-02-06T15:42:34.728Z,102222.19
2023-02-06T15:45:05.689Z,102220.34
2023-02-06T15:47:34.717Z,102210.66
2023-02-06T15:50:11.111Z,102208.75
2023-02-06T15:52:43.151Z,102208.63
2023-02-06T15:55:25.102Z,102202.44
2023-02-06T15:57:55.685Z,102191.16
2023-02-06T16:00:29.044Z,102194.56
2023-02-06T16:03:02.941Z,102189.28
2023-02-06T16:05:34.682Z,102187.25
2023-02-06T16:08:05.405Z,102189.50
2023-02-06T16:10:37.921Z,102188.25
2023-02-06T16:13:12.517Z,102179.91
2023-02-06T16:16:01.818Z,102181.28
2023-02-06T16:18:34.081Z,102186.06
2023-02-06T16:21:24.504Z,102187.38
2023-02-06T16:24:07.230Z,102191.25
2023-02-06T16:26:44.324Z,102177.72
2023-02-06T16:29:25.079Z,102188.34
2023-02-06T16:32:03.154Z,102184.25
2023-02-06T16:34:37.354Z,102196.59
2023-02-06T16:37:12.585Z,102186.41
2023-02-06T16:39:43.456Z,102194.28
2023-02-06T16:42:16.313Z,102191.88
2023-02-06T16:44:48.146Z,102187.06
2023-02-06T16:47:21.755Z,102188.25
2023-02-06T16:49:51.209Z,102191.16
2023-02-06T16:52:23.017Z,102189.63
2023-02-06T16:54:52.074Z,102202.47
2023-02-06T16:57:26.217Z,102199.78
2023-02-06T16:59:54.955Z,102189.19
2023-02-06T17:02:25.071Z,102188.06
2023-02-06T17:04:54.084Z,102190.53
2023-02-06T17:07:25.252Z,102194.16
2023-02-06T17:09:57.328Z,102196.94
2023-02-06T17:12:26.636Z,102186.56
2023-02-06T17:14:55.267Z,102190.66
2023-02-06T17:17:25.176Z,102177.41
2023-02-06T17:19:54.280Z,102174.59
2023-02-06T17:22:23.020Z,102171.00
2023-02-06T17:24:54.052Z,102167.59
2023-02-06T17:27:27.521Z,102166.78
2023-02-06T17:29:58.715Z,102162.41
2023-02-06T17:32:31.487Z,102161.47
2023-02-06T17:35:04.073Z,102160.63
2023-02-06T17:37:34.283Z,102168.50
2023-02-06T17:40:05.647Z,102168.50
2023-02-06T17:42:37.812Z,102171.00
2023-02-06T17:45:10.967Z,102171.13
2023-02-06T17:47:45.019Z,102177.41
2023-02-06T17:50:20.238Z,102184.53
2023-02-06T17:52:54.064Z,102187.13
2023-02-06T17:55:25.564Z,102191.50
2023-02-06T17:57:58.785Z,102193.19
2023-02-06T18:00:28.679Z,102197.50
2023-02-06T18:03:02.449Z,102191.25
2023-02-06T18:05:34.365Z,102193.81
2023-02-06T18:08:05.364Z,102195.41
2023-02-06T18:10:35.459Z,102185.81
2023-02-06T18:13:07.616Z,102194.28
2023-02-06T18:15:38.557Z,102196.72
2023-02-06T18:18:08.388Z,102198.28
2023-02-06T18:20:37.148Z,102191.84
2023-02-06T18:23:05.950Z,102198.41
2023-02-06T18:25:34.797Z,102204.84
2023-02-06T18:28:03.555Z,102200.84
2023-02-06T18:30:32.271Z,102206.28
2023-02-06T18:33:02.624Z,102205.06
2023-02-06T18:35:37.963Z,102204.03
2023-02-06T18:38:11.784Z,102197.09
2023-02-06T18:40:42.911Z,102194.34
2023-02-06T18:43:10.678Z,102200.84
2023-02-06T18:45:42.332Z,102193.34
2023-02-06T18:48:17.471Z,102203.97
2023-02-06T18:50:53.524Z,102205.47
2023-02-06T18:53:24.766Z,102199.47
2023-02-06T18:56:03.711Z,102200.50
2023-02-06T18:58:39.773Z,102200.53
2023-02-06T19:01:13.786Z,102209.00
2023-02-06T19:03:50.773Z,102187.25
2023-02-06T19:06:23.221Z,102182.59
2023-02-06T19:08:51.698Z,102177.31
2023-02-06T19:11:20.097Z,102183.31
2023-02-06T19:13:48.560Z,102185.06
2023-02-06T19:16:19.155Z,102189.31
2023-02-06T19:18:49.411Z,102186.19
2023-02-06T19:21:19.450Z,102195.59
2023-02-06T19:23:55.088Z,102193.69
2023-02-06T19:26:24.540Z,102191.78
2023-02-06T19:28:53.927Z,102198.75
2023-02-06T19:31:24.733Z,102192.94
2023-02-06T19:33:54.438Z,102189.06
2023-02-06T19:36:26.512Z,102185.91
2023-02-06T19:38:57.881Z,102191.19
2023-02-06T19:41:28.754Z,102186.16
2023-02-06T19:43:58.367Z,102191.44
2023-02-06T19:46:28.024Z,102177.94
2023-02-06T19:48:57.327Z,102178.78
2023-02-06T19:51:27.740Z,102170.75
2023-02-06T19:53:58.951Z,102175.94
2023-02-06T19:56:31.492Z,102179.28
2023-02-06T19:59:01.368Z,102176.69
2023-02-06T20:01:31.148Z,102186.22
2023-02-06T20:04:00.736Z,102185.41
2023-02-06T20:06:34.837Z,102186.16
2023-02-06T20:09:06.104Z,102179.03
2023-02-06T20:11:35.043Z,102178.72
2023-02-06T20:14:03.290Z,102177.50
2023-02-06T20:16:34.880Z,102170.44
2023-02-06T20:19:07.805Z,102173.63
2023-02-06T20:21:39.360Z,102175.88
2023-02-06T20:24:12.797Z,102172.22
2023-02-06T20:26:42.722Z,102168.53
2023-02-06T20:29:24.907Z,102167.34
2023-02-06T20:31:54.214Z,102154.28
2023-02-06T20:34:22.880Z,102147.63
2023-02-06T20:36:52.323Z,102151.28
2023-02-06T20:39:22.390Z,102154.69
2023-02-06T20:41:50.966Z,102159.03
2023-02-06T20:44:20.798Z,102149.06
2023-02-06T20:46:49.758Z,102154.97
2023-02-06T20:49:19.913Z,102155.25
2023-02-06T20:51:49.985Z,102165.03
2023-02-06T20:54:19.155Z,102157.38
2023-02-06T20:56:48.883Z,102154.03
2023-02-06T20:59:19.448Z,102160.19
2023-02-06T21:01:47.796Z,102163.41
2023-02-06T21:04:17.286Z,102173.25
2023-02-06T21:06:47.973Z,102168.25
2023-02-06T21:09:16.252Z,102166.84
2023-02-06T21:11:46.465Z,102179.41
2023-02-06T21:14:17.274Z,102176.38
2023-02-06T21:16:45.564Z,102182.19
2023-02-06T21:19:15.953Z,102178.56
2023-02-06T21:21:46.354Z,102171.63
2023-02-06T21:24:15.716Z,102180.19
2023-02-06T21:26:44.530Z,102176.03
2023-02-06T21:29:15.780Z,102171.03
2023-02-06T21:31:44.971Z,102173.69
2023-02-06T21:34:14.640Z,102173.72
2023-02-06T21:36:43.543Z,102161.22
2023-02-06T21:39:15.535Z,102169.78
2023-02-06T21:41:44.020Z,102168.63
2023-02-06T21:44:12.252Z,102165.69
2023-02-06T21:46:41.718Z,102160.25
2023-02-06T21:49:11.662Z,102152.16
2023-02-06T21:51:40.571Z,102153.56
2023-02-06T21:54:08.883Z,102152.47
2023-02-06T21:56:39.136Z,102159.97
2023-02-06T21:59:07.927Z,102150.94
2023-02-06T22:01:36.651Z,102159.31
2023-02-06T22:04:06.273Z,102155.56
2023-02-06T22:06:36.905Z,102153.09
2023-02-06T22:09:07.836Z,102147.94
2023-02-06T22:11:38.157Z,102155.66
2023-02-06T22:14:09.059Z,102163.66
2023-02-06T22:16:37.355Z,102159.63
2023-02-06T22:19:07.613Z,102161.91
2023-02-06T22:21:36.401Z,102153.09
2023-02-06T22:24:08.222Z,102154.09
2023-02-06T22:26:38.960Z,102153.09
2023-02-06T22:29:08.488Z,102156.69
2023-02-06T22:31:37.161Z,102156.31
2023-02-06T22:34:11.794Z,102157.78
2023-02-06T22:36:40.211Z,102159.84
2023-02-06T22:39:09.926Z,102156.56
2023-02-06T22:41:40.717Z,102151.28
2023-02-06T22:44:09.109Z,102146.53
2023-02-06T22:46:39.241Z,102142.00
2023-02-06T22:49:10.233Z,102133.81
2023-02-06T22:51:40.106Z,102145.25
2023-02-06T22:54:09.804Z,102140.50
2023-02-06T22:56:39.904Z,102138.50
2023-02-06T22:59:11.242Z,102138.78
2023-02-06T23:01:42.072Z,102138.19
2023-02-06T23:04:14.030Z,102138.78
2023-02-06T23:06:43.076Z,102140.84
2023-02-06T23:09:15.246Z,102143.41
2023-02-06T23:11:43.698Z,102141.50
2023-02-06T23:14:12.823Z,102140.56
2023-02-06T23:16:41.229Z,102136.44
2023-02-06T23:19:12.199Z,102137.44
2023-02-06T23:21:42.289Z,102129.56
2023-02-06T23:24:12.002Z,102128.53
2023-02-06T23:26:42.575Z,102125.00
2023-02-06T23:29:15.756Z,102126.56
2023-02-06T23:31:44.261Z,102128.72
2023-02-06T23:34:14.279Z,102123.34
2023-02-06T23:36:42.513Z,102124.56
2023-02-06T23:39:11.834Z,102115.72
2023-02-06T23:41:40.095Z,102116.34
2023-02-06T23:44:10.106Z,102111.84
2023-02-06T23:46:41.228Z,102114.34
2023-02-06T23:49:10.344Z,102121.66
2023-02-06T23:51:39.835Z,102125.31
2023-02-06T23:54:09.400Z,102115.78
2023-02-06T23:56:38.202Z,102116.50
2023-02-06T23:59:07.321Z,102118.00
